createdAt,value
2018-11-05T00:00:14.715Z,27.93
2018-11-05T00:02:42.996Z,27.93
2018-11-05T00:05:11.207Z,28.37
2018-11-05T00:07:39.661Z,29.57
2018-11-05T00:10:07.861Z,28.60
2018-11-05T00:12:36.210Z,26.97
2018-11-05T00:15:04.429Z,28.23
2018-11-05T00:17:32.615Z,27.20
2018-11-05T00:20:00.786Z,26.73
2018-11-05T00:22:29.031Z,27.67
2018-11-05T00:24:57.228Z,27.80
2018-11-05T00:27:25.527Z,27.47
2018-11-05T00:29:54.078Z,29.50
2018-11-05T00:32:22.261Z,26.90
2018-11-05T00:34:50.397Z,27.60
2018-11-05T00:37:18.624Z,26.83
2018-11-05T00:39:46.735Z,26.17
2018-11-05T00:42:16.249Z,27.27
2018-11-05T00:44:44.472Z,26.27
2018-11-05T00:47:12.484Z,27.83
2018-11-05T00:49:40.743Z,27.30
2018-11-05T00:52:09.379Z,27.77
2018-11-05T00:54:37.766Z,26.30
2018-11-05T00:57:05.926Z,26.37
2018-11-05T00:59:34.115Z,26.20
2018-11-05T01:02:02.621Z,25.00
2018-11-05T01:04:30.691Z,26.13
2018-11-05T01:06:58.924Z,25.40
2018-11-05T01:09:27.147Z,27.73
2018-11-05T01:11:55.692Z,25.70
2018-11-05T01:14:24.087Z,26.13
2018-11-05T01:16:52.452Z,26.53
2018-11-05T01:19:20.590Z,26.50
2018-11-05T01:21:48.897Z,25.40
2018-11-05T01:24:17.071Z,25.93
2018-11-05T01:26:45.795Z,24.70
2018-11-05T01:29:13.866Z,24.67
2018-11-05T01:31:42.200Z,25.20
2018-11-05T01:34:10.489Z,25.57
2018-11-05T01:36:38.899Z,24.77
2018-11-05T01:39:07.542Z,24.87
2018-11-05T01:41:35.786Z,25.63
2018-11-05T01:44:04.060Z,24.73
2018-11-05T01:46:32.260Z,22.50
2018-11-05T01:49:00.691Z,25.33
2018-11-05T01:51:28.936Z,23.07
2018-11-05T01:53:57.813Z,24.57
2018-11-05T01:56:26.166Z,22.83
2018-11-05T01:58:54.370Z,23.00
2018-11-05T02:01:22.595Z,22.90
2018-11-05T02:03:50.751Z,22.13
2018-11-05T02:06:18.866Z,22.17
2018-11-05T02:08:47.234Z,22.20
2018-11-05T02:11:15.396Z,23.50
2018-11-05T02:13:43.512Z,22.40
2018-11-05T02:16:11.741Z,22.50
2018-11-05T02:18:40.318Z,22.03
2018-11-05T02:21:08.534Z,22.73
2018-11-05T02:23:36.829Z,23.13
2018-11-05T02:26:05.616Z,21.73
2018-11-05T02:28:33.782Z,22.23
2018-11-05T02:31:02.076Z,22.43
2018-11-05T02:33:30.193Z,22.50
2018-11-05T02:35:58.485Z,21.77
2018-11-05T02:38:26.884Z,21.47
2018-11-05T02:40:55.191Z,22.57
2018-11-05T02:43:23.781Z,22.43
2018-11-05T02:45:52.080Z,22.30
2018-11-05T02:48:20.294Z,20.67
2018-11-05T02:50:48.674Z,21.63
2018-11-05T02:53:17.040Z,20.73
2018-11-05T02:55:45.338Z,21.53
2018-11-05T02:58:13.673Z,21.97
2018-11-05T03:00:41.887Z,22.13
2018-11-05T03:03:10.404Z,22.40
2018-11-05T03:05:38.850Z,21.63
2018-11-05T03:08:07.142Z,21.87
2018-11-05T03:10:35.387Z,21.07
2018-11-05T03:13:03.890Z,22.20
2018-11-05T03:15:32.165Z,22.00
2018-11-05T03:18:00.449Z,22.07
2018-11-05T03:20:28.666Z,21.00
2018-11-05T03:22:57.216Z,20.53
2018-11-05T03:25:25.613Z,20.70
2018-11-05T03:27:54.059Z,20.93
2018-11-05T03:30:22.225Z,20.73
2018-11-05T03:32:50.731Z,21.47
2018-11-05T03:35:18.967Z,19.73
2018-11-05T03:37:47.588Z,21.43
2018-11-05T03:40:15.973Z,19.60
2018-11-05T03:42:44.350Z,20.43
2018-11-05T03:45:14.880Z,20.50
2018-11-05T03:47:43.306Z,19.33
2018-11-05T03:50:12.454Z,19.03
2018-11-05T03:52:41.032Z,19.33
2018-11-05T03:55:09.312Z,19.33
2018-11-05T03:57:37.954Z,18.67
2018-11-05T04:00:06.824Z,19.43
2018-11-05T04:02:34.962Z,19.07
2018-11-05T04:05:04.535Z,18.40
2018-11-05T04:07:32.852Z,19.93
2018-11-05T04:10:01.057Z,18.87
2018-11-05T04:12:29.565Z,18.20
2018-11-05T04:14:57.720Z,18.87
2018-11-05T04:17:26.058Z,18.90
2018-11-05T04:19:54.227Z,16.87
2018-11-05T04:22:22.379Z,19.33
2018-11-05T04:24:50.705Z,18.83
2018-11-05T04:27:19.057Z,18.00
2018-11-05T04:29:47.467Z,20.10
2018-11-05T04:32:15.594Z,19.20
2018-11-05T04:34:44.121Z,19.10
2018-11-05T04:37:12.391Z,19.27
2018-11-05T04:39:40.694Z,19.33
2018-11-05T04:42:08.824Z,19.07
2018-11-05T04:44:37.236Z,19.13
2018-11-05T04:47:05.748Z,18.13
2018-11-05T04:49:34.129Z,18.60
2018-11-05T04:52:02.852Z,18.63
2018-11-05T04:54:31.122Z,19.90
2018-11-05T04:56:59.312Z,18.73
2018-11-05T04:59:27.807Z,17.20
2018-11-05T05:01:56.061Z,19.30
2018-11-05T05:04:24.428Z,19.93
2018-11-05T05:06:52.988Z,18.07
2018-11-05T05:09:21.457Z,17.57
2018-11-05T05:11:49.974Z,19.57
2018-11-05T05:14:18.272Z,19.90
2018-11-05T05:16:46.863Z,19.77
2018-11-05T05:19:15.153Z,18.97
2018-11-05T05:21:43.469Z,19.60
2018-11-05T05:24:11.740Z,19.53
2018-11-05T05:26:40.262Z,18.93
2018-11-05T05:29:08.886Z,18.80
2018-11-05T05:31:37.225Z,20.03
2018-11-05T05:34:05.847Z,20.30
2018-11-05T05:36:34.261Z,18.77
2018-11-05T05:39:02.856Z,18.70
2018-11-05T05:41:31.531Z,18.97
2018-11-05T05:43:59.867Z,19.10
2018-11-05T05:46:28.507Z,20.13
2018-11-05T05:48:56.780Z,19.07
2018-11-05T05:51:25.206Z,19.40
2018-11-05T05:53:53.545Z,18.17
2018-11-05T05:56:22.182Z,18.83
2018-11-05T05:58:50.371Z,18.93
2018-11-05T06:01:18.656Z,18.60
2018-11-05T06:03:47.157Z,18.37
2018-11-05T06:06:15.530Z,19.57
2018-11-05T06:08:43.698Z,17.73
2018-11-05T06:11:12.170Z,17.70
2018-11-05T06:13:40.505Z,18.80
2018-11-05T06:16:09.198Z,19.03
2018-11-05T06:18:37.559Z,18.37
2018-11-05T06:21:05.912Z,17.07
2018-11-05T06:23:34.056Z,18.80
2018-11-05T06:26:02.457Z,17.50
2018-11-05T06:28:32.615Z,17.30
2018-11-05T06:31:00.929Z,17.67
2018-11-05T06:33:29.382Z,15.77
2018-11-05T06:35:58.734Z,16.90
2018-11-05T06:38:27.078Z,18.37
2018-11-05T06:40:55.722Z,16.93
2018-11-05T06:43:24.081Z,18.33
2018-11-05T06:45:52.593Z,18.30
2018-11-05T06:48:21.080Z,16.77
2018-11-05T06:50:49.506Z,17.53
2018-11-05T06:53:24.805Z,18.00
2018-11-05T06:55:53.655Z,17.60
2018-11-05T06:58:21.943Z,17.67
2018-11-05T07:00:50.317Z,16.60
2018-11-05T07:03:18.717Z,18.00
2018-11-05T07:05:46.869Z,17.53
2018-11-05T07:08:15.108Z,17.63
2018-11-05T07:10:43.482Z,17.57
2018-11-05T07:13:11.624Z,18.70
2018-11-05T07:15:40.115Z,17.03
2018-11-05T07:18:08.544Z,18.10
2018-11-05T07:20:37.456Z,17.30
2018-11-05T07:23:06.036Z,17.13
2018-11-05T07:25:34.667Z,16.47
2018-11-05T07:28:02.992Z,16.47
2018-11-05T07:30:31.660Z,16.43
2018-11-05T07:32:59.830Z,16.47
2018-11-05T07:35:28.108Z,17.23
2018-11-05T07:37:56.923Z,16.93
2018-11-05T07:40:25.671Z,17.00
2018-11-05T07:42:53.955Z,16.17
2018-11-05T07:45:23.472Z,16.87
2018-11-05T07:47:51.913Z,16.13
2018-11-05T07:50:21.183Z,16.60
2018-11-05T07:52:50.429Z,15.87
2018-11-05T07:55:19.033Z,18.20
2018-11-05T07:57:48.403Z,16.50
2018-11-05T08:00:22.041Z,16.20
2018-11-05T08:02:51.804Z,16.50
2018-11-05T08:05:20.894Z,16.77
2018-11-05T08:07:50.048Z,16.50
2018-11-05T08:10:18.689Z,16.07
2018-11-05T08:12:47.039Z,16.17
2018-11-05T08:15:20.872Z,16.00
2018-11-05T08:17:50.113Z,16.37
2018-11-05T08:20:18.461Z,16.10
2018-11-05T08:22:47.116Z,15.50
2018-11-05T08:25:16.054Z,16.03
2018-11-05T08:27:44.439Z,16.30
2018-11-05T08:30:17.647Z,15.57
2018-11-05T08:32:46.193Z,17.03
2018-11-05T08:35:14.726Z,16.13
2018-11-05T08:37:44.073Z,15.47
2018-11-05T08:40:13.959Z,16.70
2018-11-05T08:42:42.576Z,14.67
2018-11-05T08:45:11.502Z,15.63
2018-11-05T08:47:39.810Z,15.97
2018-11-05T08:50:09.161Z,16.03
2018-11-05T08:52:37.574Z,15.53
2018-11-05T08:55:06.789Z,16.47
2018-11-05T08:57:35.017Z,16.03
2018-11-05T09:00:03.456Z,16.83
2018-11-05T09:02:31.860Z,15.73
2018-11-05T09:05:00.273Z,16.83
2018-11-05T09:07:28.846Z,15.33
2018-11-05T09:09:57.417Z,16.10
2018-11-05T09:12:25.960Z,15.17
2018-11-05T09:14:54.236Z,16.87
2018-11-05T09:17:22.430Z,15.93
2018-11-05T09:19:50.741Z,14.87
2018-11-05T09:22:19.286Z,16.83
2018-11-05T09:24:47.431Z,16.30
2018-11-05T09:27:16.287Z,15.77
2018-11-05T09:29:44.659Z,16.23
2018-11-05T09:32:13.394Z,16.87
2018-11-05T09:34:41.642Z,16.60
2018-11-05T09:37:10.073Z,17.57
2018-11-05T09:39:38.336Z,15.63
2018-11-05T09:42:06.812Z,16.87
2018-11-05T09:44:35.257Z,16.87
2018-11-05T09:47:03.905Z,15.83
2018-11-05T09:49:32.438Z,16.57
2018-11-05T09:52:00.872Z,16.67
2018-11-05T09:54:29.155Z,15.70
2018-11-05T09:56:58.334Z,15.50
2018-11-05T09:59:28.199Z,14.70
2018-11-05T10:01:56.693Z,14.80
2018-11-05T10:04:25.982Z,14.93
2018-11-05T10:06:54.366Z,15.13
2018-11-05T10:09:22.921Z,14.43
2018-11-05T10:11:51.366Z,15.07
2018-11-05T10:14:19.594Z,15.17
2018-11-05T10:16:47.997Z,14.93
2018-11-05T10:19:16.497Z,14.70
2018-11-05T10:21:44.713Z,15.07
2018-11-05T10:24:12.976Z,15.00
2018-11-05T10:26:41.576Z,14.73
2018-11-05T10:29:10.096Z,15.70
2018-11-05T10:31:38.679Z,14.97
2018-11-05T10:34:07.137Z,15.07
2018-11-05T10:36:35.413Z,15.07
2018-11-05T10:39:04.884Z,14.47
2018-11-05T10:41:33.332Z,15.10
2018-11-05T10:44:02.181Z,14.73
2018-11-05T10:46:30.502Z,16.10
2018-11-05T10:48:59.011Z,15.30
2018-11-05T10:51:27.715Z,17.23
2018-11-05T10:53:56.273Z,15.97
2018-11-05T10:56:24.850Z,16.73
2018-11-05T10:58:53.359Z,15.40
2018-11-05T11:01:27.433Z,16.17
2018-11-05T11:04:01.221Z,15.67
2018-11-05T11:06:29.489Z,14.90
2018-11-05T11:08:57.954Z,14.93
2018-11-05T11:11:26.237Z,15.87
2018-11-05T11:13:54.689Z,14.77
2018-11-05T11:16:23.120Z,13.90
2018-11-05T11:18:51.481Z,14.50
2018-11-05T11:21:19.662Z,15.47
2018-11-05T11:23:48.352Z,14.70
2018-11-05T11:26:16.739Z,14.60
2018-11-05T11:28:45.156Z,15.23
2018-11-05T11:31:13.675Z,15.53
2018-11-05T11:33:41.855Z,16.40
2018-11-05T11:36:10.171Z,15.00
2018-11-05T11:38:38.448Z,14.33
2018-11-05T11:41:07.082Z,14.70
2018-11-05T11:43:35.555Z,14.97
2018-11-05T11:46:04.151Z,15.67
2018-11-05T11:48:32.434Z,15.40
2018-11-05T11:51:01.099Z,15.40
2018-11-05T11:53:29.919Z,15.40
2018-11-05T11:55:58.825Z,16.47
2018-11-05T11:58:27.903Z,15.60
2018-11-05T12:00:56.494Z,16.13
2018-11-05T12:03:25.414Z,15.90
2018-11-05T12:05:54.334Z,16.30
2018-11-05T12:08:22.731Z,16.30
2018-11-05T12:10:51.419Z,16.07
2018-11-05T12:13:19.740Z,16.83
2018-11-05T12:15:47.960Z,15.97
2018-11-05T12:18:16.141Z,17.73
2018-11-05T12:20:44.463Z,15.83
2018-11-05T12:23:12.616Z,16.90
2018-11-05T12:25:40.895Z,18.10
2018-11-05T12:28:09.191Z,17.13
2018-11-05T12:30:37.841Z,18.10
2018-11-05T12:33:06.125Z,17.03
2018-11-05T12:35:34.834Z,18.33
2018-11-05T12:38:03.473Z,18.03
2018-11-05T12:40:32.290Z,18.93
2018-11-05T12:43:01.034Z,18.67
2018-11-05T12:45:29.541Z,18.23
2018-11-05T12:47:57.866Z,17.60
2018-11-05T12:50:26.725Z,17.60
2018-11-05T12:52:55.654Z,17.83
2018-11-05T12:55:24.068Z,18.03
2018-11-05T12:57:52.589Z,18.20
2018-11-05T13:00:22.404Z,18.07
2018-11-05T13:02:55.112Z,17.73
2018-11-05T13:05:24.169Z,18.60
2018-11-05T13:07:53.392Z,18.17
2018-11-05T13:10:21.848Z,17.63
2018-11-05T13:12:50.657Z,19.30
2018-11-05T13:15:18.958Z,18.83
2018-11-05T13:17:47.591Z,18.83
2018-11-05T13:20:18.213Z,19.33
2018-11-05T13:22:46.946Z,18.93
2018-11-05T13:25:15.539Z,19.43
2018-11-05T13:27:45.159Z,19.20
2018-11-05T13:30:14.278Z,20.87
2018-11-05T13:32:43.301Z,21.73
2018-11-05T13:35:14.962Z,22.73
2018-11-05T13:37:43.910Z,22.03
2018-11-05T13:40:14.290Z,21.13
2018-11-05T13:42:42.729Z,25.57
2018-11-05T13:45:12.802Z,25.80
2018-11-05T13:47:42.375Z,27.77
2018-11-05T13:50:11.484Z,29.60
2018-11-05T13:55:18.680Z,31.20
2018-11-05T13:57:48.349Z,31.77
2018-11-05T14:00:18.077Z,32.90
2018-11-05T14:02:47.284Z,32.13
2018-11-05T14:05:15.744Z,33.17
2018-11-05T14:07:44.691Z,35.03
2018-11-05T14:10:14.624Z,37.83
2018-11-05T14:12:44.574Z,38.80
2018-11-05T14:15:13.133Z,38.47
2018-11-05T14:17:42.659Z,40.10
2018-11-05T14:20:11.999Z,39.80
2018-11-05T14:22:41.035Z,39.17
2018-11-05T14:25:11.065Z,40.57
2018-11-05T14:27:39.693Z,40.80
2018-11-05T14:30:08.925Z,40.77
2018-11-05T14:32:37.509Z,41.80
2018-11-05T14:35:06.385Z,41.67
2018-11-05T14:37:35.129Z,42.07
2018-11-05T14:40:03.842Z,42.10
2018-11-05T14:42:32.370Z,41.37
2018-11-05T14:45:00.683Z,42.43
2018-11-05T14:47:29.052Z,41.77
2018-11-05T14:49:57.684Z,40.80
2018-11-05T14:52:26.644Z,43.07
2018-11-05T14:54:55.403Z,41.77
2018-11-05T14:57:24.039Z,43.27
2018-11-05T14:59:53.035Z,45.73
2018-11-05T15:02:26.844Z,41.63
2018-11-05T15:04:55.835Z,43.97
2018-11-05T15:07:24.806Z,42.80
2018-11-05T15:09:53.468Z,44.27
2018-11-05T15:12:22.321Z,45.20
2018-11-05T15:14:51.102Z,42.90
2018-11-05T15:17:19.355Z,43.90
2018-11-05T15:19:48.677Z,43.03
2018-11-05T15:22:18.541Z,42.60
2018-11-05T15:24:46.852Z,44.40
2018-11-05T15:27:15.195Z,42.23
2018-11-05T15:29:44.048Z,44.40
2018-11-05T15:32:12.417Z,44.70
2018-11-05T15:34:41.077Z,43.60
2018-11-05T15:37:09.792Z,42.67
2018-11-05T15:39:38.442Z,43.80
2018-11-05T15:42:07.714Z,43.37
2018-11-05T15:44:37.453Z,43.77
2018-11-05T15:47:05.952Z,44.60
2018-11-05T15:49:36.196Z,44.30
2018-11-05T15:52:05.023Z,43.00
2018-11-05T15:54:34.041Z,43.20
2018-11-05T15:57:02.791Z,41.83
2018-11-05T15:59:31.145Z,42.67
2018-11-05T16:02:04.781Z,43.60
2018-11-05T16:04:33.733Z,41.87
2018-11-05T16:07:01.986Z,43.03
2018-11-05T16:09:30.361Z,43.50
2018-11-05T16:11:59.458Z,42.23
2018-11-05T16:14:29.039Z,42.47
2018-11-05T16:16:57.761Z,40.03
2018-11-05T16:19:26.359Z,40.23
2018-11-05T16:21:56.142Z,41.70
2018-11-05T16:24:24.443Z,41.43
2018-11-05T16:26:53.191Z,39.73
2018-11-05T16:29:21.914Z,39.43
2018-11-05T16:31:50.038Z,39.97
2018-11-05T16:34:18.167Z,37.77
2018-11-05T16:36:46.445Z,37.87
2018-11-05T16:39:14.567Z,38.27
2018-11-05T16:41:42.750Z,38.00
2018-11-05T16:44:11.309Z,37.33
2018-11-05T16:46:40.116Z,36.60
2018-11-05T16:49:08.384Z,35.60
2018-11-05T16:51:36.525Z,36.77
2018-11-05T16:54:05.295Z,36.23
2018-11-05T16:56:33.736Z,37.03
2018-11-05T16:59:03.043Z,35.57
2018-11-05T17:01:31.390Z,34.13
2018-11-05T17:03:59.170Z,34.30
2018-11-05T17:06:27.343Z,34.77
2018-11-05T17:08:55.473Z,35.10
2018-11-05T17:11:23.532Z,34.83
2018-11-05T17:13:51.795Z,35.47
2018-11-05T17:16:20.070Z,34.67
2018-11-05T17:18:48.179Z,33.57
2018-11-05T17:21:16.248Z,34.47
2018-11-05T17:23:44.367Z,34.03
2018-11-05T17:26:12.523Z,34.83
2018-11-05T17:28:40.524Z,32.70
2018-11-05T17:31:08.731Z,32.13
2018-11-05T17:33:37.036Z,32.83
2018-11-05T17:36:05.131Z,34.20
2018-11-05T17:38:33.305Z,32.90
2018-11-05T17:41:01.426Z,32.03
2018-11-05T17:43:29.470Z,32.43
2018-11-05T17:45:57.669Z,32.40
2018-11-05T17:48:25.779Z,32.37
2018-11-05T17:50:54.130Z,31.27
2018-11-05T17:53:22.158Z,30.63
2018-11-05T17:55:50.321Z,32.57
2018-11-05T17:58:18.709Z,32.30
2018-11-05T18:00:46.864Z,33.43
2018-11-05T18:03:15.048Z,32.27
2018-11-05T18:05:44.113Z,31.90
2018-11-05T18:08:12.324Z,32.20
2018-11-05T18:10:40.696Z,31.03
2018-11-05T18:13:08.924Z,31.33
2018-11-05T18:15:37.055Z,30.87
2018-11-05T18:18:05.053Z,32.60
2018-11-05T18:20:33.104Z,29.70
2018-11-05T18:23:01.351Z,30.33
2018-11-05T18:25:29.797Z,31.60
2018-11-05T18:27:58.011Z,31.37
2018-11-05T18:30:26.048Z,33.27
2018-11-05T18:32:54.131Z,31.87
2018-11-05T18:35:22.239Z,31.00
2018-11-05T18:37:50.936Z,29.27
2018-11-05T18:40:19.176Z,29.93
2018-11-05T18:42:47.398Z,31.80
2018-11-05T18:45:15.561Z,31.80
2018-11-05T18:47:43.957Z,29.60
2018-11-05T18:50:13.305Z,29.53
2018-11-05T18:52:41.517Z,30.87
2018-11-05T18:55:11.008Z,30.60
2018-11-05T18:57:39.493Z,29.83
2018-11-05T19:00:09.389Z,30.83
2018-11-05T19:02:37.627Z,31.70
2018-11-05T19:05:05.768Z,32.50
2018-11-05T19:07:33.956Z,31.87
2018-11-05T19:10:02.310Z,32.13
2018-11-05T19:12:30.711Z,32.07
2018-11-05T19:14:58.875Z,31.10
2018-11-05T19:17:26.937Z,30.27
2018-11-05T19:19:55.030Z,31.80
2018-11-05T19:22:23.344Z,31.13
2018-11-05T19:24:51.550Z,32.07
2018-11-05T19:27:19.793Z,31.20
2018-11-05T19:29:48.811Z,32.33
2018-11-05T19:32:16.903Z,29.80
2018-11-05T19:34:44.938Z,32.20
2018-11-05T19:37:13.447Z,29.90
2018-11-05T19:39:41.593Z,30.03
2018-11-05T19:42:09.767Z,31.63
2018-11-05T19:44:37.874Z,32.63
2018-11-05T19:47:06.127Z,31.43
2018-11-05T19:49:34.619Z,31.43
2018-11-05T19:52:02.845Z,30.73
2018-11-05T19:54:31.009Z,31.00
2018-11-05T19:56:59.153Z,30.27
2018-11-05T19:59:27.326Z,30.23
2018-11-05T20:01:55.434Z,31.03
2018-11-05T20:04:23.572Z,31.97
2018-11-05T20:06:51.646Z,29.90
2018-11-05T20:09:19.853Z,31.07
2018-11-05T20:11:48.014Z,31.53
2018-11-05T20:14:16.207Z,31.70
2018-11-05T20:16:44.355Z,30.43
2018-11-05T20:19:12.443Z,30.87
2018-11-05T20:21:41.143Z,31.30
2018-11-05T20:24:09.705Z,31.57
2018-11-05T20:26:37.823Z,30.17
2018-11-05T20:29:06.034Z,30.73
2018-11-05T20:31:34.406Z,31.07
2018-11-05T20:34:02.803Z,30.50
2018-11-05T20:36:31.255Z,30.97
2018-11-05T20:38:59.425Z,31.13
2018-11-05T20:41:27.607Z,29.80
2018-11-05T20:43:55.672Z,30.73
2018-11-05T20:46:24.097Z,29.37
2018-11-05T20:48:52.284Z,31.10
2018-11-05T20:51:20.369Z,29.97
2018-11-05T20:53:48.521Z,30.43
2018-11-05T20:56:16.572Z,30.77
2018-11-05T20:58:44.710Z,32.87
2018-11-05T21:01:12.856Z,32.00
2018-11-05T21:03:40.955Z,30.73
2018-11-05T21:06:09.033Z,30.23
2018-11-05T21:08:37.267Z,30.70
2018-11-05T21:11:05.563Z,30.20
2018-11-05T21:13:33.602Z,31.57
2018-11-05T21:16:01.756Z,29.93
2018-11-05T21:18:29.818Z,29.77
2018-11-05T21:20:58.080Z,31.70
2018-11-05T21:23:26.061Z,31.57
2018-11-05T21:25:54.131Z,31.97
2018-11-05T21:28:22.202Z,29.80
2018-11-05T21:30:50.352Z,30.50
2018-11-05T21:33:18.492Z,30.67
2018-11-05T21:35:46.489Z,29.93
2018-11-05T21:38:14.564Z,29.90
2018-11-05T21:40:42.627Z,32.33
2018-11-05T21:43:10.703Z,31.93
2018-11-05T21:45:38.813Z,29.40
2018-11-05T21:48:06.893Z,28.87
2018-11-05T21:50:34.974Z,31.50
2018-11-05T21:53:03.275Z,30.77
2018-11-05T21:55:31.442Z,30.63
2018-11-05T21:57:59.469Z,30.37
2018-11-05T22:00:27.499Z,31.93
2018-11-05T22:02:59.159Z,28.30
2018-11-05T22:05:27.226Z,27.50
2018-11-05T22:07:55.289Z,28.87
2018-11-05T22:10:23.336Z,28.33
2018-11-05T22:12:51.351Z,29.47
2018-11-05T22:15:19.645Z,27.30
2018-11-05T22:17:47.756Z,28.70
2018-11-05T22:20:15.721Z,28.73
2018-11-05T22:22:43.967Z,28.60
2018-11-05T22:25:12.457Z,29.23
2018-11-05T22:27:40.648Z,27.70
2018-11-05T22:30:09.351Z,28.40
2018-11-05T22:32:37.465Z,30.03
2018-11-05T22:35:05.733Z,28.93
2018-11-05T22:37:33.760Z,28.47
2018-11-05T22:40:01.861Z,28.37
2018-11-05T22:42:30.012Z,27.93
2018-11-05T22:44:58.010Z,28.37
2018-11-05T22:47:26.057Z,28.40
2018-11-05T22:49:54.151Z,28.23
2018-11-05T22:52:22.201Z,28.60
2018-11-05T22:54:50.232Z,29.07
2018-11-05T22:57:18.603Z,28.30
2018-11-05T22:59:46.749Z,28.13
2018-11-05T23:02:15.143Z,28.80
2018-11-05T23:04:43.145Z,26.80
2018-11-05T23:07:11.158Z,28.37
2018-11-05T23:09:39.558Z,26.87
2018-11-05T23:12:07.580Z,27.83
2018-11-05T23:14:35.673Z,27.00
2018-11-05T23:17:03.875Z,26.07
2018-11-05T23:19:31.924Z,27.77
2018-11-05T23:21:59.931Z,27.73
2018-11-05T23:24:27.975Z,26.73
2018-11-05T23:26:56.038Z,27.60
2018-11-05T23:29:24.120Z,26.50
2018-11-05T23:31:52.186Z,25.40
2018-11-05T23:34:20.219Z,25.43
2018-11-05T23:36:48.230Z,23.60
2018-11-05T23:39:16.273Z,24.67
2018-11-05T23:41:44.363Z,24.67
2018-11-05T23:44:12.645Z,24.30
2018-11-05T23:46:40.603Z,24.20
2018-11-05T23:49:08.651Z,23.97
2018-11-05T23:51:36.697Z,24.33
2018-11-05T23:54:04.842Z,24.07
2018-11-05T23:56:32.926Z,24.37
2018-11-05T23:59:01.014Z,24.53
